sensor_id;sensor_type;location;lat;lon;timestamp;temperature;humidity
27506;DHT22;14939;43.596;1.320;2023-08-07T00:00:26;16.40;96.70
27506;DHT22;14939;43.596;1.320;2023-08-07T00:02:51;16.40;97.20
27506;DHT22;14939;43.596;1.320;2023-08-07T00:05:17;16.40;97.50
27506;DHT22;14939;43.596;1.320;2023-08-07T00:07:43;16.40;97.70
27506;DHT22;14939;43.596;1.320;2023-08-07T00:10:09;16.30;98.40
27506;DHT22;14939;43.596;1.320;2023-08-07T00:12:35;16.30;98.90
27506;DHT22;14939;43.596;1.320;2023-08-07T00:15:00;16.20;99.50
27506;DHT22;14939;43.596;1.320;2023-08-07T00:17:26;16.20;99.90
27506;DHT22;14939;43.596;1.320;2023-08-07T00:19:52;16.10;99.90
27506;DHT22;14939;43.596;1.320;2023-08-07T00:22:17;16.00;99.90
27506;DHT22;14939;43.596;1.320;2023-08-07T00:24:43;16.00;99.90
27506;DHT22;14939;43.596;1.320;2023-08-07T00:27:08;16.00;99.90
27506;DHT22;14939;43.596;1.320;2023-08-07T00:29:36;16.00;99.90
27506;DHT22;14939;43.596;1.320;2023-08-07T00:32:02;15.90;99.90
27506;DHT22;14939;43.596;1.320;2023-08-07T00:34:28;15.90;99.90
27506;DHT22;14939;43.596;1.320;2023-08-07T00:36:53;15.90;99.90
27506;DHT22;14939;43.596;1.320;2023-08-07T00:39:19;15.80;99.90
27506;DHT22;14939;43.596;1.320;2023-08-07T00:41:44;15.80;99.90
27506;DHT22;14939;43.596;1.320;2023-08-07T00:44:10;15.70;99.90
27506;DHT22;14939;43.596;1.320;2023-08-07T00:46:35;15.70;99.90
27506;DHT22;14939;43.596;1.320;2023-08-07T00:49:02;15.60;99.90
27506;DHT22;14939;43.596;1.320;2023-08-07T00:51:28;15.60;99.90
27506;DHT22;14939;43.596;1.320;2023-08-07T00:53:54;15.50;99.90
27506;DHT22;14939;43.596;1.320;2023-08-07T00:56:19;15.50;99.90
27506;DHT22;14939;43.596;1.320;2023-08-07T00:58:45;15.40;99.90
27506;DHT22;14939;43.596;1.320;2023-08-07T01:01:11;15.40;99.90
27506;DHT22;14939;43.596;1.320;2023-08-07T01:03:37;15.40;99.90
27506;DHT22;14939;43.596;1.320;2023-08-07T01:06:03;15.30;99.90
27506;DHT22;14939;43.596;1.320;2023-08-07T01:08:28;15.30;99.90
27506;DHT22;14939;43.596;1.320;2023-08-07T01:13:37;15.30;99.90
27506;DHT22;14939;43.596;1.320;2023-08-07T01:16:05;15.20;99.90
27506;DHT22;14939;43.596;1.320;2023-08-07T01:18:34;15.20;99.90
27506;DHT22;14939;43.596;1.320;2023-08-07T01:21:00;15.20;99.90
27506;DHT22;14939;43.596;1.320;2023-08-07T01:23:25;15.20;99.90
27506;DHT22;14939;43.596;1.320;2023-08-07T01:25:51;15.20;99.90
27506;DHT22;14939;43.596;1.320;2023-08-07T01:30:49;15.10;99.90
27506;DHT22;14939;43.596;1.320;2023-08-07T01:34:16;15.10;99.90
27506;DHT22;14939;43.596;1.320;2023-08-07T01:36:10;15.10;99.90
27506;DHT22;14939;43.596;1.320;2023-08-07T01:38:36;15.10;99.90
27506;DHT22;14939;43.596;1.320;2023-08-07T01:41:01;15.10;99.90
27506;DHT22;14939;43.596;1.320;2023-08-07T01:43:28;15.10;99.90
27506;DHT22;14939;43.596;1.320;2023-08-07T01:45:53;15.10;99.90
27506;DHT22;14939;43.596;1.320;2023-08-07T01:48:19;15.00;99.90
27506;DHT22;14939;43.596;1.320;2023-08-07T01:50:44;15.00;99.90
27506;DHT22;14939;43.596;1.320;2023-08-07T01:53:10;15.00;99.90
27506;DHT22;14939;43.596;1.320;2023-08-07T01:55:36;15.00;99.90
27506;DHT22;14939;43.596;1.320;2023-08-07T01:58:01;15.00;99.90
27506;DHT22;14939;43.596;1.320;2023-08-07T02:00:27;15.00;99.90
27506;DHT22;14939;43.596;1.320;2023-08-07T02:02:53;15.00;99.90
27506;DHT22;14939;43.596;1.320;2023-08-07T02:05:19;15.00;99.90
27506;DHT22;14939;43.596;1.320;2023-08-07T02:07:44;14.90;99.90
27506;DHT22;14939;43.596;1.320;2023-08-07T02:10:10;14.90;99.90
27506;DHT22;14939;43.596;1.320;2023-08-07T02:12:35;14.90;99.90
27506;DHT22;14939;43.596;1.320;2023-08-07T02:15:01;14.90;99.90
27506;DHT22;14939;43.596;1.320;2023-08-07T02:17:27;14.80;99.90
27506;DHT22;14939;43.596;1.320;2023-08-07T02:19:53;14.90;99.90
27506;DHT22;14939;43.596;1.320;2023-08-07T02:22:18;14.80;99.90
27506;DHT22;14939;43.596;1.320;2023-08-07T02:24:44;14.80;99.90
27506;DHT22;14939;43.596;1.320;2023-08-07T02:27:09;14.80;99.90
27506;DHT22;14939;43.596;1.320;2023-08-07T02:29:35;14.70;99.90
27506;DHT22;14939;43.596;1.320;2023-08-07T02:32:02;14.70;99.90
27506;DHT22;14939;43.596;1.320;2023-08-07T02:34:28;14.70;99.90
27506;DHT22;14939;43.596;1.320;2023-08-07T02:36:54;14.70;99.90
27506;DHT22;14939;43.596;1.320;2023-08-07T02:39:19;14.60;99.90
27506;DHT22;14939;43.596;1.320;2023-08-07T02:41:45;14.60;99.90
27506;DHT22;14939;43.596;1.320;2023-08-07T02:44:10;14.50;99.90
27506;DHT22;14939;43.596;1.320;2023-08-07T02:46:36;14.50;99.90
27506;DHT22;14939;43.596;1.320;2023-08-07T02:49:02;14.50;99.90
27506;DHT22;14939;43.596;1.320;2023-08-07T02:51:27;14.50;99.90
27506;DHT22;14939;43.596;1.320;2023-08-07T02:53:53;14.60;99.90
27506;DHT22;14939;43.596;1.320;2023-08-07T02:56:18;14.60;99.90
27506;DHT22;14939;43.596;1.320;2023-08-07T02:58:44;14.50;99.90
27506;DHT22;14939;43.596;1.320;2023-08-07T03:01:09;14.50;99.90
27506;DHT22;14939;43.596;1.320;2023-08-07T03:03:36;14.50;99.90
27506;DHT22;14939;43.596;1.320;2023-08-07T03:06:02;14.50;99.90
27506;DHT22;14939;43.596;1.320;2023-08-07T03:08:28;14.50;99.90
27506;DHT22;14939;43.596;1.320;2023-08-07T03:10:54;14.50;99.90
27506;DHT22;14939;43.596;1.320;2023-08-07T03:13:21;14.50;99.90
27506;DHT22;14939;43.596;1.320;2023-08-07T03:15:46;14.40;99.90
27506;DHT22;14939;43.596;1.320;2023-08-07T03:18:14;14.40;99.90
27506;DHT22;14939;43.596;1.320;2023-08-07T03:20:40;14.40;99.90
27506;DHT22;14939;43.596;1.320;2023-08-07T03:23:05;14.40;99.90
27506;DHT22;14939;43.596;1.320;2023-08-07T03:25:31;14.40;99.90
27506;DHT22;14939;43.596;1.320;2023-08-07T03:27:56;14.40;99.90
27506;DHT22;14939;43.596;1.320;2023-08-07T03:30:22;14.40;99.90
27506;DHT22;14939;43.596;1.320;2023-08-07T03:32:47;14.30;99.90
27506;DHT22;14939;43.596;1.320;2023-08-07T03:35:13;14.30;99.90
27506;DHT22;14939;43.596;1.320;2023-08-07T03:37:38;14.30;99.90
27506;DHT22;14939;43.596;1.320;2023-08-07T03:40:04;14.30;99.90
27506;DHT22;14939;43.596;1.320;2023-08-07T03:42:30;14.30;99.90
27506;DHT22;14939;43.596;1.320;2023-08-07T03:44:55;14.30;99.90
27506;DHT22;14939;43.596;1.320;2023-08-07T03:47:21;14.20;99.90
27506;DHT22;14939;43.596;1.320;2023-08-07T03:49:46;14.20;99.90
27506;DHT22;14939;43.596;1.320;2023-08-07T03:52:12;14.20;99.90
27506;DHT22;14939;43.596;1.320;2023-08-07T03:54:38;14.20;99.90
27506;DHT22;14939;43.596;1.320;2023-08-07T03:57:03;14.20;99.90
27506;DHT22;14939;43.596;1.320;2023-08-07T03:59:29;14.30;99.90
27506;DHT22;14939;43.596;1.320;2023-08-07T04:01:54;14.30;99.90
27506;DHT22;14939;43.596;1.320;2023-08-07T04:04:20;14.30;99.90
27506;DHT22;14939;43.596;1.320;2023-08-07T04:06:45;14.30;99.90
27506;DHT22;14939;43.596;1.320;2023-08-07T04:09:11;14.30;99.90
27506;DHT22;14939;43.596;1.320;2023-08-07T04:11:37;14.30;99.90
27506;DHT22;14939;43.596;1.320;2023-08-07T04:14:02;14.20;99.90
27506;DHT22;14939;43.596;1.320;2023-08-07T04:16:29;14.20;99.90
27506;DHT22;14939;43.596;1.320;2023-08-07T04:18:56;14.20;99.90
27506;DHT22;14939;43.596;1.320;2023-08-07T04:21:22;14.10;99.90
27506;DHT22;14939;43.596;1.320;2023-08-07T04:23:47;14.10;99.90
27506;DHT22;14939;43.596;1.320;2023-08-07T04:26:13;14.10;99.90
27506;DHT22;14939;43.596;1.320;2023-08-07T04:28:39;14.00;99.90
27506;DHT22;14939;43.596;1.320;2023-08-07T04:31:05;14.00;99.90
27506;DHT22;14939;43.596;1.320;2023-08-07T04:33:43;13.90;99.90
27506;DHT22;14939;43.596;1.320;2023-08-07T04:36:08;13.90;99.90
27506;DHT22;14939;43.596;1.320;2023-08-07T04:38:34;13.80;99.90
27506;DHT22;14939;43.596;1.320;2023-08-07T04:40:59;13.80;99.90
27506;DHT22;14939;43.596;1.320;2023-08-07T04:43:25;13.70;99.90
27506;DHT22;14939;43.596;1.320;2023-08-07T04:45:50;13.70;99.90
27506;DHT22;14939;43.596;1.320;2023-08-07T04:48:16;13.60;99.90
27506;DHT22;14939;43.596;1.320;2023-08-07T04:50:43;13.60;99.90
27506;DHT22;14939;43.596;1.320;2023-08-07T04:53:08;13.60;99.90
27506;DHT22;14939;43.596;1.320;2023-08-07T04:55:34;13.60;99.90
27506;DHT22;14939;43.596;1.320;2023-08-07T04:57:59;13.50;99.90
27506;DHT22;14939;43.596;1.320;2023-08-07T05:00:25;13.50;99.90
27506;DHT22;14939;43.596;1.320;2023-08-07T05:02:51;13.50;99.90
27506;DHT22;14939;43.596;1.320;2023-08-07T05:05:16;13.50;99.90
27506;DHT22;14939;43.596;1.320;2023-08-07T05:07:43;13.50;99.90
27506;DHT22;14939;43.596;1.320;2023-08-07T05:10:09;13.40;99.90
27506;DHT22;14939;43.596;1.320;2023-08-07T05:12:35;13.40;99.90
27506;DHT22;14939;43.596;1.320;2023-08-07T05:15:00;13.40;99.90
27506;DHT22;14939;43.596;1.320;2023-08-07T05:17:26;13.40;99.90
27506;DHT22;14939;43.596;1.320;2023-08-07T05:19:51;13.40;99.90
27506;DHT22;14939;43.596;1.320;2023-08-07T05:22:17;13.40;99.90
27506;DHT22;14939;43.596;1.320;2023-08-07T05:24:42;13.50;99.90
27506;DHT22;14939;43.596;1.320;2023-08-07T05:27:10;13.50;99.90
27506;DHT22;14939;43.596;1.320;2023-08-07T05:29:36;13.50;99.90
27506;DHT22;14939;43.596;1.320;2023-08-07T05:32:09;13.40;99.90
27506;DHT22;14939;43.596;1.320;2023-08-07T05:34:35;13.50;99.90
27506;DHT22;14939;43.596;1.320;2023-08-07T05:37:00;13.50;99.90
27506;DHT22;14939;43.596;1.320;2023-08-07T05:39:26;13.60;99.90
27506;DHT22;14939;43.596;1.320;2023-08-07T05:41:51;13.60;99.90
27506;DHT22;14939;43.596;1.320;2023-08-07T05:44:19;13.70;99.90
27506;DHT22;14939;43.596;1.320;2023-08-07T05:46:44;13.70;99.90
27506;DHT22;14939;43.596;1.320;2023-08-07T05:49:10;13.70;99.90
27506;DHT22;14939;43.596;1.320;2023-08-07T05:51:35;13.80;99.90
27506;DHT22;14939;43.596;1.320;2023-08-07T05:54:01;13.80;99.90
27506;DHT22;14939;43.596;1.320;2023-08-07T05:56:26;13.90;99.90
27506;DHT22;14939;43.596;1.320;2023-08-07T05:58:52;13.90;99.90
27506;DHT22;14939;43.596;1.320;2023-08-07T06:01:17;14.00;99.90
27506;DHT22;14939;43.596;1.320;2023-08-07T06:03:43;14.00;99.90
27506;DHT22;14939;43.596;1.320;2023-08-07T06:06:08;14.00;99.90
27506;DHT22;14939;43.596;1.320;2023-08-07T06:08:34;14.10;99.90
27506;DHT22;14939;43.596;1.320;2023-08-07T06:11:00;14.10;99.90
27506;DHT22;14939;43.596;1.320;2023-08-07T06:13:28;14.20;99.90
27506;DHT22;14939;43.596;1.320;2023-08-07T06:15:54;14.20;99.90
27506;DHT22;14939;43.596;1.320;2023-08-07T06:18:20;14.20;99.90
27506;DHT22;14939;43.596;1.320;2023-08-07T06:20:45;14.20;99.90
27506;DHT22;14939;43.596;1.320;2023-08-07T06:23:12;14.30;99.90
27506;DHT22;14939;43.596;1.320;2023-08-07T06:25:37;14.40;99.90
27506;DHT22;14939;43.596;1.320;2023-08-07T06:28:03;14.40;99.90
27506;DHT22;14939;43.596;1.320;2023-08-07T06:30:30;14.50;99.90
27506;DHT22;14939;43.596;1.320;2023-08-07T06:32:56;14.60;99.90
27506;DHT22;14939;43.596;1.320;2023-08-07T06:35:21;14.60;99.90
27506;DHT22;14939;43.596;1.320;2023-08-07T06:37:47;14.60;99.90
27506;DHT22;14939;43.596;1.320;2023-08-07T06:40:12;14.70;99.90
27506;DHT22;14939;43.596;1.320;2023-08-07T06:42:38;14.80;99.90
27506;DHT22;14939;43.596;1.320;2023-08-07T06:45:04;14.80;99.90
27506;DHT22;14939;43.596;1.320;2023-08-07T06:47:29;14.90;99.90
27506;DHT22;14939;43.596;1.320;2023-08-07T06:49:55;14.90;99.90
27506;DHT22;14939;43.596;1.320;2023-08-07T06:52:21;14.90;99.90
27506;DHT22;14939;43.596;1.320;2023-08-07T06:54:46;15.00;99.90
27506;DHT22;14939;43.596;1.320;2023-08-07T06:57:12;15.10;99.90
27506;DHT22;14939;43.596;1.320;2023-08-07T06:59:37;15.10;99.90
27506;DHT22;14939;43.596;1.320;2023-08-07T07:02:03;15.20;99.90
27506;DHT22;14939;43.596;1.320;2023-08-07T07:04:29;15.30;99.90
27506;DHT22;14939;43.596;1.320;2023-08-07T07:06:55;15.40;99.90
27506;DHT22;14939;43.596;1.320;2023-08-07T07:09:30;15.40;99.90
27506;DHT22;14939;43.596;1.320;2023-08-07T07:11:55;15.50;99.90
27506;DHT22;14939;43.596;1.320;2023-08-07T07:14:21;15.50;99.90
27506;DHT22;14939;43.596;1.320;2023-08-07T07:16:47;15.50;99.90
27506;DHT22;14939;43.596;1.320;2023-08-07T07:19:12;15.50;99.90
27506;DHT22;14939;43.596;1.320;2023-08-07T07:21:38;15.60;99.90
27506;DHT22;14939;43.596;1.320;2023-08-07T07:24:04;15.70;99.90
27506;DHT22;14939;43.596;1.320;2023-08-07T07:26:29;15.80;99.90
27506;DHT22;14939;43.596;1.320;2023-08-07T07:28:55;15.90;99.90
27506;DHT22;14939;43.596;1.320;2023-08-07T07:31:20;15.90;99.90
27506;DHT22;14939;43.596;1.320;2023-08-07T07:33:46;16.00;99.90
27506;DHT22;14939;43.596;1.320;2023-08-07T07:36:16;16.10;99.90
27506;DHT22;14939;43.596;1.320;2023-08-07T07:38:41;16.20;99.90
27506;DHT22;14939;43.596;1.320;2023-08-07T07:41:07;16.30;99.90
27506;DHT22;14939;43.596;1.320;2023-08-07T07:43:36;16.40;99.90
27506;DHT22;14939;43.596;1.320;2023-08-07T07:46:02;16.40;99.90
27506;DHT22;14939;43.596;1.320;2023-08-07T07:48:27;16.50;99.90
27506;DHT22;14939;43.596;1.320;2023-08-07T07:51:00;16.60;99.90
27506;DHT22;14939;43.596;1.320;2023-08-07T07:53:25;16.60;99.90
27506;DHT22;14939;43.596;1.320;2023-08-07T07:55:51;16.60;99.90
27506;DHT22;14939;43.596;1.320;2023-08-07T07:58:16;16.80;99.90
27506;DHT22;14939;43.596;1.320;2023-08-07T08:00:42;16.80;99.90
27506;DHT22;14939;43.596;1.320;2023-08-07T08:03:08;16.80;99.90
27506;DHT22;14939;43.596;1.320;2023-08-07T08:05:33;16.90;99.90
27506;DHT22;14939;43.596;1.320;2023-08-07T08:08:00;17.00;99.90
27506;DHT22;14939;43.596;1.320;2023-08-07T08:10:26;17.00;99.90
27506;DHT22;14939;43.596;1.320;2023-08-07T08:12:54;17.00;99.90
27506;DHT22;14939;43.596;1.320;2023-08-07T08:15:19;17.10;99.90
27506;DHT22;14939;43.596;1.320;2023-08-07T08:17:46;17.10;99.90
27506;DHT22;14939;43.596;1.320;2023-08-07T08:20:12;17.30;99.90
27506;DHT22;14939;43.596;1.320;2023-08-07T08:22:41;17.40;99.90
27506;DHT22;14939;43.596;1.320;2023-08-07T08:25:06;17.50;99.90
27506;DHT22;14939;43.596;1.320;2023-08-07T08:27:32;17.50;99.90
27506;DHT22;14939;43.596;1.320;2023-08-07T08:29:58;17.80;99.90
27506;DHT22;14939;43.596;1.320;2023-08-07T08:32:23;17.90;99.90
27506;DHT22;14939;43.596;1.320;2023-08-07T08:34:49;17.80;99.90
27506;DHT22;14939;43.596;1.320;2023-08-07T08:37:15;17.90;99.90
27506;DHT22;14939;43.596;1.320;2023-08-07T08:39:40;17.90;99.90
27506;DHT22;14939;43.596;1.320;2023-08-07T08:42:07;17.90;99.90
27506;DHT22;14939;43.596;1.320;2023-08-07T08:44:33;18.10;99.90
27506;DHT22;14939;43.596;1.320;2023-08-07T08:47:01;18.20;99.90
27506;DHT22;14939;43.596;1.320;2023-08-07T08:49:28;18.20;99.90
27506;DHT22;14939;43.596;1.320;2023-08-07T08:51:55;18.30;99.90
27506;DHT22;14939;43.596;1.320;2023-08-07T08:54:22;18.30;99.90
27506;DHT22;14939;43.596;1.320;2023-08-07T08:56:47;18.40;99.90
27506;DHT22;14939;43.596;1.320;2023-08-07T08:59:13;18.50;99.90
27506;DHT22;14939;43.596;1.320;2023-08-07T09:01:39;18.70;99.30
27506;DHT22;14939;43.596;1.320;2023-08-07T09:04:04;18.80;99.90
27506;DHT22;14939;43.596;1.320;2023-08-07T09:06:31;18.90;97.70
27506;DHT22;14939;43.596;1.320;2023-08-07T09:08:57;19.00;96.80
27506;DHT22;14939;43.596;1.320;2023-08-07T09:11:23;19.00;96.90
27506;DHT22;14939;43.596;1.320;2023-08-07T09:13:49;18.70;95.80
27506;DHT22;14939;43.596;1.320;2023-08-07T09:16:15;18.70;94.80
27506;DHT22;14939;43.596;1.320;2023-08-07T09:18:41;18.90;94.50
27506;DHT22;14939;43.596;1.320;2023-08-07T09:21:07;19.20;91.90
27506;DHT22;14939;43.596;1.320;2023-08-07T09:23:33;19.10;92.40
27506;DHT22;14939;43.596;1.320;2023-08-07T09:25:59;19.10;90.80
27506;DHT22;14939;43.596;1.320;2023-08-07T09:28:25;19.40;90.70
27506;DHT22;14939;43.596;1.320;2023-08-07T09:30:52;19.50;89.60
27506;DHT22;14939;43.596;1.320;2023-08-07T09:33:23;19.50;90.30
27506;DHT22;14939;43.596;1.320;2023-08-07T09:35:49;19.60;88.70
27506;DHT22;14939;43.596;1.320;2023-08-07T09:38:15;19.60;88.80
27506;DHT22;14939;43.596;1.320;2023-08-07T09:40:41;19.80;87.00
27506;DHT22;14939;43.596;1.320;2023-08-07T09:43:07;19.70;85.10
27506;DHT22;14939;43.596;1.320;2023-08-07T09:45:33;19.80;83.90
27506;DHT22;14939;43.596;1.320;2023-08-07T09:48:05;19.80;82.90
27506;DHT22;14939;43.596;1.320;2023-08-07T09:50:34;19.70;83.30
27506;DHT22;14939;43.596;1.320;2023-08-07T09:52:59;19.70;83.00
27506;DHT22;14939;43.596;1.320;2023-08-07T09:55:25;19.60;81.90
27506;DHT22;14939;43.596;1.320;2023-08-07T09:57:51;19.60;82.40
27506;DHT22;14939;43.596;1.320;2023-08-07T10:00:17;19.60;83.00
27506;DHT22;14939;43.596;1.320;2023-08-07T10:02:48;19.80;80.40
27506;DHT22;14939;43.596;1.320;2023-08-07T10:05:14;19.90;80.60
27506;DHT22;14939;43.596;1.320;2023-08-07T10:07:40;20.20;77.30
27506;DHT22;14939;43.596;1.320;2023-08-07T10:10:06;20.20;75.30
27506;DHT22;14939;43.596;1.320;2023-08-07T10:12:32;20.10;74.40
27506;DHT22;14939;43.596;1.320;2023-08-07T10:14:58;19.90;74.80
27506;DHT22;14939;43.596;1.320;2023-08-07T10:17:24;20.00;73.40
27506;DHT22;14939;43.596;1.320;2023-08-07T10:19:50;20.10;73.00
27506;DHT22;14939;43.596;1.320;2023-08-07T10:22:16;20.30;71.20
27506;DHT22;14939;43.596;1.320;2023-08-07T10:24:42;20.30;70.20
27506;DHT22;14939;43.596;1.320;2023-08-07T10:27:09;20.30;71.90
27506;DHT22;14939;43.596;1.320;2023-08-07T10:29:36;20.50;71.30
27506;DHT22;14939;43.596;1.320;2023-08-07T10:32:02;20.80;70.70
27506;DHT22;14939;43.596;1.320;2023-08-07T10:34:33;20.70;68.60
27506;DHT22;14939;43.596;1.320;2023-08-07T10:36:58;20.60;67.30
27506;DHT22;14939;43.596;1.320;2023-08-07T10:39:24;20.70;63.50
27506;DHT22;14939;43.596;1.320;2023-08-07T10:41:52;20.70;61.90
27506;DHT22;14939;43.596;1.320;2023-08-07T10:44:22;20.70;63.70
27506;DHT22;14939;43.596;1.320;2023-08-07T10:46:52;20.70;64.10
27506;DHT22;14939;43.596;1.320;2023-08-07T10:49:31;20.80;63.30
27506;DHT22;14939;43.596;1.320;2023-08-07T10:54:29;21.10;64.30
27506;DHT22;14939;43.596;1.320;2023-08-07T10:56:54;21.10;62.30
27506;DHT22;14939;43.596;1.320;2023-08-07T10:59:20;21.00;60.90
27506;DHT22;14939;43.596;1.320;2023-08-07T11:01:50;21.20;60.20
27506;DHT22;14939;43.596;1.320;2023-08-07T11:04:15;21.10;58.80
27506;DHT22;14939;43.596;1.320;2023-08-07T11:06:42;21.10;58.80
27506;DHT22;14939;43.596;1.320;2023-08-07T11:09:08;21.20;56.70
27506;DHT22;14939;43.596;1.320;2023-08-07T11:14:09;21.40;52.60
27506;DHT22;14939;43.596;1.320;2023-08-07T11:16:35;21.30;53.30
27506;DHT22;14939;43.596;1.320;2023-08-07T11:19:01;21.40;53.30
27506;DHT22;14939;43.596;1.320;2023-08-07T11:21:27;21.40;52.50
27506;DHT22;14939;43.596;1.320;2023-08-07T11:23:52;21.50;52.90
27506;DHT22;14939;43.596;1.320;2023-08-07T11:26:18;21.70;53.00
27506;DHT22;14939;43.596;1.320;2023-08-07T11:28:47;21.90;51.80
27506;DHT22;14939;43.596;1.320;2023-08-07T11:31:12;22.00;53.20
27506;DHT22;14939;43.596;1.320;2023-08-07T11:33:38;22.00;52.60
27506;DHT22;14939;43.596;1.320;2023-08-07T11:36:09;22.00;51.60
27506;DHT22;14939;43.596;1.320;2023-08-07T11:38:37;22.10;52.30
27506;DHT22;14939;43.596;1.320;2023-08-07T11:41:03;22.00;51.50
27506;DHT22;14939;43.596;1.320;2023-08-07T11:43:29;22.10;50.80
27506;DHT22;14939;43.596;1.320;2023-08-07T11:45:56;22.10;48.20
27506;DHT22;14939;43.596;1.320;2023-08-07T11:48:28;22.30;48.20
27506;DHT22;14939;43.596;1.320;2023-08-07T11:50:54;22.40;48.70
27506;DHT22;14939;43.596;1.320;2023-08-07T11:53:20;22.60;50.70
27506;DHT22;14939;43.596;1.320;2023-08-07T11:55:47;22.90;48.60
27506;DHT22;14939;43.596;1.320;2023-08-07T11:58:12;23.10;47.10
27506;DHT22;14939;43.596;1.320;2023-08-07T12:00:38;22.80;46.50
27506;DHT22;14939;43.596;1.320;2023-08-07T12:03:22;22.70;47.90
27506;DHT22;14939;43.596;1.320;2023-08-07T12:05:48;22.80;47.50
27506;DHT22;14939;43.596;1.320;2023-08-07T12:08:14;22.60;46.80
27506;DHT22;14939;43.596;1.320;2023-08-07T12:10:40;22.60;45.80
27506;DHT22;14939;43.596;1.320;2023-08-07T12:13:08;22.50;45.30
27506;DHT22;14939;43.596;1.320;2023-08-07T12:15:33;22.50;44.80
27506;DHT22;14939;43.596;1.320;2023-08-07T12:18:02;22.60;43.90
27506;DHT22;14939;43.596;1.320;2023-08-07T12:20:28;22.80;43.80
27506;DHT22;14939;43.596;1.320;2023-08-07T12:22:54;22.70;42.90
27506;DHT22;14939;43.596;1.320;2023-08-07T12:25:20;22.80;44.60
27506;DHT22;14939;43.596;1.320;2023-08-07T12:27:45;22.90;42.70
27506;DHT22;14939;43.596;1.320;2023-08-07T12:30:12;23.00;43.10
27506;DHT22;14939;43.596;1.320;2023-08-07T12:32:38;23.00;43.50
27506;DHT22;14939;43.596;1.320;2023-08-07T12:35:04;23.00;43.00
27506;DHT22;14939;43.596;1.320;2023-08-07T12:37:33;22.90;43.10
27506;DHT22;14939;43.596;1.320;2023-08-07T12:39:58;23.10;43.10
27506;DHT22;14939;43.596;1.320;2023-08-07T12:42:24;23.40;42.70
27506;DHT22;14939;43.596;1.320;2023-08-07T12:44:50;23.50;41.50
27506;DHT22;14939;43.596;1.320;2023-08-07T12:47:15;23.60;41.60
27506;DHT22;14939;43.596;1.320;2023-08-07T12:49:41;23.40;41.60
27506;DHT22;14939;43.596;1.320;2023-08-07T12:52:06;23.40;40.80
27506;DHT22;14939;43.596;1.320;2023-08-07T12:54:32;23.40;41.20
27506;DHT22;14939;43.596;1.320;2023-08-07T12:56:58;23.30;39.60
27506;DHT22;14939;43.596;1.320;2023-08-07T12:59:23;23.30;40.60
27506;DHT22;14939;43.596;1.320;2023-08-07T13:01:49;23.30;39.20
27506;DHT22;14939;43.596;1.320;2023-08-07T13:04:14;23.50;39.20
27506;DHT22;14939;43.596;1.320;2023-08-07T13:06:41;23.60;37.50
27506;DHT22;14939;43.596;1.320;2023-08-07T13:09:07;23.60;35.70
27506;DHT22;14939;43.596;1.320;2023-08-07T13:11:32;23.80;37.50
27506;DHT22;14939;43.596;1.320;2023-08-07T13:13:58;23.80;38.30
27506;DHT22;14939;43.596;1.320;2023-08-07T13:16:23;23.80;37.60
27506;DHT22;14939;43.596;1.320;2023-08-07T13:18:49;23.90;37.80
27506;DHT22;14939;43.596;1.320;2023-08-07T13:21:15;24.00;36.30
27506;DHT22;14939;43.596;1.320;2023-08-07T13:23:40;24.20;36.10
27506;DHT22;14939;43.596;1.320;2023-08-07T13:26:06;24.20;35.40
27506;DHT22;14939;43.596;1.320;2023-08-07T13:28:31;24.00;35.20
27506;DHT22;14939;43.596;1.320;2023-08-07T13:30:57;24.00;34.30
27506;DHT22;14939;43.596;1.320;2023-08-07T13:33:23;23.80;34.10
27506;DHT22;14939;43.596;1.320;2023-08-07T13:35:49;23.80;34.60
27506;DHT22;14939;43.596;1.320;2023-08-07T13:38:14;23.90;33.80
27506;DHT22;14939;43.596;1.320;2023-08-07T13:40:41;24.00;32.30
27506;DHT22;14939;43.596;1.320;2023-08-07T13:43:09;24.10;32.70
27506;DHT22;14939;43.596;1.320;2023-08-07T13:45:35;24.30;31.10
27506;DHT22;14939;43.596;1.320;2023-08-07T13:48:01;24.30;31.10
27506;DHT22;14939;43.596;1.320;2023-08-07T13:50:27;24.60;28.70
27506;DHT22;14939;43.596;1.320;2023-08-07T13:52:53;24.30;27.90
27506;DHT22;14939;43.596;1.320;2023-08-07T13:55:18;24.40;28.50
27506;DHT22;14939;43.596;1.320;2023-08-07T13:57:44;24.20;27.90
27506;DHT22;14939;43.596;1.320;2023-08-07T14:00:09;24.20;28.40
27506;DHT22;14939;43.596;1.320;2023-08-07T14:02:36;24.30;27.90
27506;DHT22;14939;43.596;1.320;2023-08-07T14:05:02;24.50;28.10
27506;DHT22;14939;43.596;1.320;2023-08-07T14:07:27;24.70;28.20
27506;DHT22;14939;43.596;1.320;2023-08-07T14:09:53;24.90;27.20
27506;DHT22;14939;43.596;1.320;2023-08-07T14:12:18;24.60;26.50
27506;DHT22;14939;43.596;1.320;2023-08-07T14:14:44;24.60;26.40
27506;DHT22;14939;43.596;1.320;2023-08-07T14:17:09;24.60;26.70
27506;DHT22;14939;43.596;1.320;2023-08-07T14:19:35;24.60;24.90
27506;DHT22;14939;43.596;1.320;2023-08-07T14:22:00;24.40;23.90
27506;DHT22;14939;43.596;1.320;2023-08-07T14:24:26;24.50;23.70
27506;DHT22;14939;43.596;1.320;2023-08-07T14:26:51;24.70;25.20
27506;DHT22;14939;43.596;1.320;2023-08-07T14:29:17;24.70;24.50
27506;DHT22;14939;43.596;1.320;2023-08-07T14:31:43;24.70;22.90
27506;DHT22;14939;43.596;1.320;2023-08-07T14:34:08;24.70;23.70
27506;DHT22;14939;43.596;1.320;2023-08-07T14:36:34;24.70;22.10
27506;DHT22;14939;43.596;1.320;2023-08-07T14:38:59;24.60;22.30
27506;DHT22;14939;43.596;1.320;2023-08-07T14:41:25;24.80;22.70
27506;DHT22;14939;43.596;1.320;2023-08-07T14:43:50;25.00;23.20
27506;DHT22;14939;43.596;1.320;2023-08-07T14:46:16;25.00;21.60
27506;DHT22;14939;43.596;1.320;2023-08-07T14:48:43;24.70;21.10
27506;DHT22;14939;43.596;1.320;2023-08-07T14:51:08;24.50;20.60
27506;DHT22;14939;43.596;1.320;2023-08-07T14:53:34;24.80;21.40
27506;DHT22;14939;43.596;1.320;2023-08-07T14:56:00;25.20;22.60
27506;DHT22;14939;43.596;1.320;2023-08-07T14:58:26;25.20;21.50
27506;DHT22;14939;43.596;1.320;2023-08-07T15:00:55;25.30;21.90
27506;DHT22;14939;43.596;1.320;2023-08-07T15:03:20;25.70;21.30
27506;DHT22;14939;43.596;1.320;2023-08-07T15:05:46;28.30;21.70
27506;DHT22;14939;43.596;1.320;2023-08-07T15:08:11;30.40;19.30
27506;DHT22;14939;43.596;1.320;2023-08-07T15:10:37;30.80;16.00
27506;DHT22;14939;43.596;1.320;2023-08-07T15:13:05;31.10;16.00
27506;DHT22;14939;43.596;1.320;2023-08-07T15:15:30;31.50;15.30
27506;DHT22;14939;43.596;1.320;2023-08-07T15:17:56;33.20;13.30
27506;DHT22;14939;43.596;1.320;2023-08-07T15:20:21;33.80;11.20
27506;DHT22;14939;43.596;1.320;2023-08-07T15:22:47;34.50;10.10
27506;DHT22;14939;43.596;1.320;2023-08-07T15:25:16;34.50;8.50
27506;DHT22;14939;43.596;1.320;2023-08-07T15:27:41;34.60;8.00
27506;DHT22;14939;43.596;1.320;2023-08-07T15:30:07;35.00;7.70
27506;DHT22;14939;43.596;1.320;2023-08-07T15:32:33;34.60;6.70